createdAt,value
2022-09-20T00:00:57.863Z,60.45
2022-09-20T00:01:57.876Z,60.65
2022-09-20T00:02:57.828Z,60.65
2022-09-20T00:03:58.161Z,60.65
2022-09-20T00:04:58.051Z,60.55
2022-09-20T00:05:57.826Z,60.65
2022-09-20T00:06:57.702Z,60.75
2022-09-20T00:07:57.763Z,60.65
2022-09-20T00:08:58.520Z,60.55
2022-09-20T00:09:57.895Z,60.55
2022-09-20T00:10:57.676Z,60.65
2022-09-20T00:11:57.796Z,60.88
2022-09-20T00:12:57.634Z,60.65
2022-09-20T00:13:57.768Z,60.75
2022-09-20T00:14:57.647Z,60.65
2022-09-20T00:15:57.847Z,60.65
2022-09-20T00:16:57.662Z,60.65
2022-09-20T00:17:57.655Z,60.55
2022-09-20T00:18:57.557Z,60.65
2022-09-20T00:19:57.855Z,60.55
2022-09-20T00:20:57.564Z,60.78
2022-09-20T00:21:57.781Z,60.58
2022-09-20T00:22:57.600Z,60.68
2022-09-20T00:23:57.615Z,60.75
2022-09-20T00:24:57.569Z,60.58
2022-09-20T00:25:57.428Z,60.58
2022-09-20T00:26:57.502Z,60.58
2022-09-20T00:27:57.595Z,60.78
2022-09-20T00:28:57.410Z,60.68
2022-09-20T00:29:57.595Z,60.68
2022-09-20T00:30:57.420Z,60.78
2022-09-20T00:31:57.444Z,60.58
2022-09-20T00:32:57.362Z,60.58
2022-09-20T00:33:57.568Z,60.78
2022-09-20T00:34:57.469Z,60.88
2022-09-20T00:35:57.475Z,60.78
2022-09-20T00:36:57.287Z,60.58
2022-09-20T00:37:57.307Z,60.68
2022-09-20T00:38:57.271Z,60.68
2022-09-20T00:39:57.726Z,60.78
2022-09-20T00:40:57.236Z,60.68
2022-09-20T00:41:57.283Z,60.58
2022-09-20T00:42:57.220Z,60.48
2022-09-20T00:43:57.243Z,60.48
2022-09-20T00:44:57.191Z,60.48
2022-09-20T00:45:57.525Z,60.58
2022-09-20T00:46:57.155Z,60.48
2022-09-20T00:47:57.225Z,60.48
2022-09-20T00:48:57.118Z,60.58
2022-09-20T00:49:57.121Z,60.48
2022-09-20T00:50:57.096Z,60.48
2022-09-20T00:51:57.298Z,60.58
2022-09-20T00:52:57.062Z,60.48
2022-09-20T00:53:57.175Z,60.48
2022-09-20T00:54:57.032Z,60.68
2022-09-20T00:55:57.528Z,60.38
2022-09-20T00:56:56.999Z,60.38
2022-09-20T00:57:57.311Z,60.48
2022-09-20T00:58:56.972Z,60.48
2022-09-20T00:59:56.978Z,60.48
2022-09-20T01:00:57.011Z,60.48
2022-09-20T01:01:57.163Z,60.38
2022-09-20T01:02:56.933Z,60.48
2022-09-20T01:03:57.547Z,60.48
2022-09-20T01:04:56.900Z,60.38
2022-09-20T01:05:56.907Z,60.48
2022-09-20T01:06:56.861Z,60.48
2022-09-20T01:07:57.613Z,60.68
2022-09-20T01:08:56.856Z,60.58
2022-09-20T01:09:57.196Z,60.58
2022-09-20T01:10:56.794Z,60.38
2022-09-20T01:11:56.941Z,60.38
2022-09-20T01:12:56.769Z,60.48
2022-09-20T01:13:56.876Z,60.28
2022-09-20T01:14:56.750Z,60.58
2022-09-20T01:15:57.185Z,60.38
2022-09-20T01:16:56.752Z,60.48
2022-09-20T01:17:56.886Z,60.58
2022-09-20T01:18:56.705Z,60.48
2022-09-20T01:19:56.816Z,60.58
2022-09-20T01:20:56.663Z,60.98
2022-09-20T01:21:56.942Z,60.48
2022-09-20T01:22:56.643Z,60.48
2022-09-20T01:23:56.747Z,60.48
2022-09-20T01:24:56.635Z,60.58
2022-09-20T01:25:56.932Z,60.48
2022-09-20T01:26:56.594Z,60.58
2022-09-20T01:27:57.035Z,60.58
2022-09-20T01:28:56.559Z,60.68
2022-09-20T01:29:56.602Z,60.38
2022-09-20T01:30:56.539Z,60.48
2022-09-20T01:31:56.639Z,61.08
2022-09-20T01:32:56.511Z,60.48
2022-09-20T01:33:56.792Z,60.48
2022-09-20T01:34:56.506Z,60.48
2022-09-20T01:35:56.545Z,60.68
2022-09-20T01:36:56.437Z,60.48
2022-09-20T01:37:56.550Z,60.51
2022-09-20T01:38:56.427Z,60.48
2022-09-20T01:39:56.652Z,60.38
2022-09-20T01:40:56.402Z,60.48
2022-09-20T01:41:56.486Z,60.58
2022-09-20T01:42:56.411Z,60.38
2022-09-20T01:43:56.524Z,60.31
2022-09-20T01:44:56.343Z,60.61
2022-09-20T01:45:56.722Z,60.31
2022-09-20T01:46:56.299Z,60.58
2022-09-20T01:47:56.352Z,60.71
2022-09-20T01:48:56.287Z,60.51
2022-09-20T01:49:56.410Z,60.61
2022-09-20T01:50:56.273Z,60.41
2022-09-20T01:51:56.462Z,60.51
2022-09-20T01:52:56.226Z,60.48
2022-09-20T01:53:56.356Z,60.71
2022-09-20T01:54:56.199Z,60.38
2022-09-20T01:55:56.302Z,60.61
2022-09-20T01:56:56.165Z,60.51
2022-09-20T01:57:56.652Z,60.61
2022-09-20T01:59:22.163Z,60.61
2022-09-20T01:59:57.137Z,60.61
2022-09-20T02:00:56.164Z,60.51
2022-09-20T02:01:56.281Z,60.51
2022-09-20T02:02:56.128Z,60.51
2022-09-20T02:03:56.992Z,60.41
2022-09-20T02:04:56.090Z,60.61
2022-09-20T02:05:56.332Z,60.41
2022-09-20T02:06:56.021Z,60.51
2022-09-20T02:07:56.697Z,60.51
2022-09-20T02:08:56.013Z,60.51
2022-09-20T02:09:56.256Z,60.41
2022-09-20T02:10:55.957Z,60.51
2022-09-20T02:11:56.206Z,60.61
2022-09-20T02:12:55.961Z,60.61
2022-09-20T02:13:56.106Z,60.51
2022-09-20T02:14:55.915Z,60.51
2022-09-20T02:15:56.124Z,60.61
2022-09-20T02:16:55.935Z,60.51
2022-09-20T02:17:56.002Z,60.51
2022-09-20T02:18:55.865Z,60.51
2022-09-20T02:19:56.004Z,60.51
2022-09-20T02:20:55.832Z,60.51
2022-09-20T02:21:56.096Z,60.41
2022-09-20T02:22:55.837Z,60.51
2022-09-20T02:23:55.883Z,60.51
2022-09-20T02:24:55.775Z,60.61
2022-09-20T02:25:55.842Z,60.51
2022-09-20T02:26:55.741Z,60.51
2022-09-20T02:27:56.173Z,60.31
2022-09-20T02:28:55.719Z,61.01
2022-09-20T02:29:55.880Z,60.81
2022-09-20T02:30:55.681Z,60.41
2022-09-20T02:31:56.032Z,60.61
2022-09-20T02:32:55.666Z,60.61
2022-09-20T02:33:56.829Z,60.51
2022-09-20T02:34:55.650Z,60.51
2022-09-20T02:35:55.843Z,60.41
2022-09-20T02:36:55.612Z,60.51
2022-09-20T02:37:55.844Z,60.51
2022-09-20T02:38:55.648Z,60.51
2022-09-20T02:39:55.833Z,60.51
2022-09-20T02:40:55.560Z,60.51
2022-09-20T02:41:55.705Z,60.51
2022-09-20T02:42:55.535Z,60.51
2022-09-20T02:43:55.785Z,60.51
2022-09-20T02:44:55.498Z,60.51
2022-09-20T02:45:55.662Z,60.51
2022-09-20T02:46:55.459Z,60.41
2022-09-20T02:47:55.719Z,60.41
2022-09-20T02:48:55.435Z,60.41
2022-09-20T02:49:55.645Z,60.51
2022-09-20T02:50:55.396Z,60.51
2022-09-20T02:51:55.607Z,60.61
2022-09-20T02:52:55.382Z,60.71
2022-09-20T02:53:55.580Z,60.61
2022-09-20T02:54:55.356Z,60.41
2022-09-20T02:55:55.545Z,60.51
2022-09-20T02:56:55.327Z,60.31
2022-09-20T02:57:55.529Z,60.41
2022-09-20T02:58:55.400Z,60.51
2022-09-20T02:59:55.394Z,60.51
2022-09-20T03:00:55.311Z,60.51
2022-09-20T03:01:55.558Z,60.41
2022-09-20T03:02:55.241Z,60.51
2022-09-20T03:03:55.345Z,60.31
2022-09-20T03:04:55.244Z,60.41
2022-09-20T03:05:55.373Z,60.41
2022-09-20T03:06:55.213Z,60.21
2022-09-20T03:07:55.420Z,60.41
2022-09-20T03:08:55.180Z,60.31
2022-09-20T03:09:55.450Z,60.41
2022-09-20T03:10:55.124Z,60.41
2022-09-20T03:11:55.226Z,60.41
2022-09-20T03:12:55.098Z,61.01
2022-09-20T03:13:55.362Z,60.31
2022-09-20T03:14:55.081Z,60.41
2022-09-20T03:15:55.328Z,60.61
2022-09-20T03:16:55.122Z,60.51
2022-09-20T03:17:55.108Z,60.31
2022-09-20T03:18:55.019Z,60.31
2022-09-20T03:19:55.247Z,60.53
2022-09-20T03:20:54.995Z,60.41
2022-09-20T03:21:56.046Z,60.31
2022-09-20T03:22:54.963Z,60.53
2022-09-20T03:23:55.200Z,60.41
2022-09-20T03:24:54.936Z,60.41
2022-09-20T03:25:55.362Z,60.41
2022-09-20T03:26:54.940Z,60.33
2022-09-20T03:27:55.034Z,60.21
2022-09-20T03:28:54.881Z,60.33
2022-09-20T03:29:54.932Z,60.53
2022-09-20T03:30:54.855Z,60.33
2022-09-20T03:31:55.554Z,60.44
2022-09-20T03:32:54.842Z,60.33
2022-09-20T03:33:54.942Z,60.14
2022-09-20T03:34:54.807Z,60.24
2022-09-20T03:35:55.121Z,60.33
2022-09-20T03:36:54.758Z,60.24
2022-09-20T03:37:55.046Z,60.44
2022-09-20T03:38:54.742Z,60.33
2022-09-20T03:39:55.018Z,60.33
2022-09-20T03:40:54.843Z,60.24
2022-09-20T03:41:54.772Z,60.14
2022-09-20T03:42:54.698Z,60.33
2022-09-20T03:43:55.818Z,60.24
2022-09-20T03:44:54.678Z,60.74
2022-09-20T03:45:55.258Z,60.24
2022-09-20T03:46:54.633Z,60.33
2022-09-20T03:47:55.067Z,60.24
2022-09-20T03:48:54.598Z,60.24
2022-09-20T03:49:54.912Z,60.33
2022-09-20T03:50:54.574Z,60.24
2022-09-20T03:51:54.731Z,60.24
2022-09-20T03:52:54.543Z,60.14
2022-09-20T03:53:54.616Z,60.24
2022-09-20T03:54:54.530Z,60.14
2022-09-20T03:55:54.839Z,60.24
2022-09-20T03:56:54.512Z,60.14
2022-09-20T03:57:54.754Z,60.24
2022-09-20T03:58:54.474Z,60.24
2022-09-20T03:59:54.556Z,60.14
2022-09-20T04:00:54.469Z,60.24
2022-09-20T04:01:54.789Z,60.14
2022-09-20T04:02:54.532Z,60.24
2022-09-20T04:03:54.716Z,60.24
2022-09-20T04:04:54.373Z,60.33
2022-09-20T04:05:54.465Z,60.24
2022-09-20T04:06:54.342Z,60.14
2022-09-20T04:07:54.888Z,60.24
2022-09-20T04:08:54.314Z,60.24
2022-09-20T04:09:54.678Z,60.14
2022-09-20T04:10:54.302Z,60.24
2022-09-20T04:11:55.073Z,60.24
2022-09-20T04:12:54.286Z,60.14
2022-09-20T04:13:55.336Z,60.14
2022-09-20T04:14:54.228Z,60.03
2022-09-20T04:15:54.565Z,60.03
2022-09-20T04:16:54.252Z,60.14
2022-09-20T04:17:54.476Z,60.14
2022-09-20T04:18:54.265Z,60.14
2022-09-20T04:19:54.637Z,60.14
2022-09-20T04:20:54.173Z,60.14
2022-09-20T04:21:54.326Z,60.14
2022-09-20T04:22:54.123Z,60.14
2022-09-20T04:23:54.279Z,60.24
2022-09-20T04:24:54.134Z,60.14
2022-09-20T04:25:55.325Z,60.03
2022-09-20T04:26:54.083Z,60.14
2022-09-20T04:27:54.238Z,60.14
2022-09-20T04:28:54.045Z,60.03
2022-09-20T04:29:54.222Z,60.14
2022-09-20T04:30:54.000Z,60.14
2022-09-20T04:31:54.621Z,60.14
2022-09-20T04:32:53.992Z,59.94
2022-09-20T04:33:54.939Z,60.03
2022-09-20T04:34:54.037Z,60.03
2022-09-20T04:35:54.028Z,59.94
2022-09-20T04:36:53.955Z,60.03
2022-09-20T04:37:54.943Z,59.94
2022-09-20T04:38:53.891Z,59.94
2022-09-20T04:39:54.184Z,59.94
2022-09-20T04:40:53.883Z,59.94
2022-09-20T04:41:54.217Z,59.94
2022-09-20T04:42:53.896Z,59.83
2022-09-20T04:43:54.041Z,59.94
2022-09-20T04:44:54.656Z,59.96
2022-09-20T04:45:54.871Z,59.94
2022-09-20T04:46:56.046Z,59.96
2022-09-20T04:47:54.247Z,59.86
2022-09-20T04:48:53.765Z,59.94
2022-09-20T04:49:54.510Z,60.03
2022-09-20T04:50:53.733Z,59.94
2022-09-20T04:51:54.086Z,59.96
2022-09-20T04:52:53.710Z,59.94
2022-09-20T04:53:54.431Z,59.83
2022-09-20T04:54:53.736Z,59.83
2022-09-20T04:55:54.087Z,59.77
2022-09-20T04:56:53.651Z,60.03
2022-09-20T04:57:53.894Z,60.33
2022-09-20T04:58:53.618Z,60.24
2022-09-20T04:59:54.431Z,60.33
2022-09-20T05:00:53.627Z,60.14
2022-09-20T05:01:53.919Z,60.33
2022-09-20T05:02:53.561Z,60.44
2022-09-20T05:03:53.667Z,60.53
2022-09-20T05:04:53.567Z,60.53
2022-09-20T05:05:53.686Z,60.64
2022-09-20T05:06:53.505Z,61.04
2022-09-20T05:07:54.748Z,60.64
2022-09-20T05:08:58.014Z,60.64
2022-09-20T05:09:54.591Z,60.74
2022-09-20T05:10:53.456Z,60.74
2022-09-20T05:11:53.833Z,60.84
2022-09-20T05:12:53.480Z,60.84
2022-09-20T05:13:53.694Z,61.14
2022-09-20T05:14:53.399Z,61.04
2022-09-20T05:15:53.950Z,61.04
2022-09-20T05:16:53.447Z,61.04
2022-09-20T05:17:53.523Z,61.24
2022-09-20T05:18:53.375Z,61.44
2022-09-20T05:19:53.636Z,61.34
2022-09-20T05:20:53.322Z,61.74
2022-09-20T05:21:54.212Z,62.14
2022-09-20T05:22:53.305Z,62.04
2022-09-20T05:23:54.453Z,61.94
2022-09-20T05:24:53.313Z,62.04
2022-09-20T05:25:53.473Z,61.84
2022-09-20T05:26:53.228Z,61.84
2022-09-20T05:27:53.338Z,61.84
2022-09-20T05:28:53.196Z,62.14
2022-09-20T05:29:53.452Z,62.24
2022-09-20T05:30:53.375Z,62.14
2022-09-20T05:31:53.511Z,62.14
2022-09-20T05:32:53.470Z,62.04
2022-09-20T05:33:54.518Z,61.94
2022-09-20T05:34:53.232Z,61.94
2022-09-20T05:35:53.275Z,61.64
2022-09-20T05:36:53.089Z,62.94
2022-09-20T05:37:53.984Z,62.04
2022-09-20T05:38:53.205Z,62.64
2022-09-20T05:39:53.272Z,62.74
2022-09-20T05:40:53.131Z,63.24
2022-09-20T05:41:53.806Z,63.75
2022-09-20T05:42:53.133Z,63.95
2022-09-20T05:43:53.278Z,63.45
2022-09-20T05:44:53.059Z,64.34
2022-09-20T05:45:53.859Z,64.15
2022-09-20T05:46:53.027Z,64.25
2022-09-20T05:47:53.220Z,64.01
2022-09-20T05:48:52.944Z,63.75
2022-09-20T05:49:53.403Z,64.95
2022-09-20T05:50:55.433Z,64.65
2022-09-20T05:51:53.137Z,64.84
2022-09-20T05:52:52.893Z,64.45
2022-09-20T05:53:53.122Z,63.84
2022-09-20T05:54:52.921Z,64.04
2022-09-20T05:55:53.285Z,64.25
2022-09-20T05:56:53.768Z,64.34
2022-09-20T05:57:53.018Z,64.34
2022-09-20T05:58:52.933Z,64.15
2022-09-20T05:59:53.200Z,63.84
2022-09-20T06:00:52.878Z,64.84
2022-09-20T06:01:53.256Z,64.84
2022-09-20T06:02:52.836Z,64.45
2022-09-20T06:03:53.144Z,64.75
2022-09-20T06:04:53.114Z,64.54
2022-09-20T06:05:54.258Z,64.15
2022-09-20T06:06:52.855Z,64.34
2022-09-20T06:07:52.953Z,64.34
2022-09-20T06:08:53.243Z,64.25
2022-09-20T06:09:53.032Z,64.54
2022-09-20T06:10:52.607Z,64.45
2022-09-20T06:11:52.822Z,64.04
2022-09-20T06:12:52.667Z,64.15
2022-09-20T06:13:52.900Z,64.04
2022-09-20T06:14:52.608Z,63.84
2022-09-20T06:15:52.756Z,64.04
2022-09-20T06:16:52.561Z,64.15
2022-09-20T06:17:52.663Z,63.95
2022-09-20T06:18:52.579Z,64.04
2022-09-20T06:19:52.735Z,63.95
2022-09-20T06:20:52.505Z,63.84
2022-09-20T06:21:52.686Z,63.75
2022-09-20T06:22:52.631Z,63.75
2022-09-20T06:23:53.518Z,63.54
2022-09-20T06:24:52.455Z,63.34
2022-09-20T06:25:52.622Z,63.24
2022-09-20T06:26:52.447Z,63.45
2022-09-20T06:27:52.497Z,63.45
2022-09-20T06:28:55.267Z,63.34
2022-09-20T06:29:53.706Z,63.34
2022-09-20T06:30:53.467Z,63.45
2022-09-20T06:31:52.535Z,63.45
2022-09-20T06:32:52.529Z,63.24
2022-09-20T06:33:52.522Z,63.54
2022-09-20T06:34:52.302Z,63.54
2022-09-20T06:35:54.740Z,63.75
2022-09-20T06:36:53.253Z,63.54
2022-09-20T06:37:52.594Z,63.64
2022-09-20T06:38:52.303Z,63.64
2022-09-20T06:39:52.383Z,63.54
2022-09-20T06:40:52.193Z,63.34
2022-09-20T06:41:52.363Z,63.45
2022-09-20T06:42:52.184Z,63.54
2022-09-20T06:43:52.353Z,63.34
2022-09-20T06:44:52.159Z,63.34
2022-09-20T06:45:52.426Z,63.54
2022-09-20T06:46:52.108Z,63.45
2022-09-20T06:47:52.523Z,63.64
2022-09-20T06:48:52.097Z,63.45
2022-09-20T06:49:52.273Z,63.45
2022-09-20T06:50:52.049Z,63.64
2022-09-20T06:51:52.204Z,63.34
2022-09-20T06:52:52.131Z,63.45
2022-09-20T06:53:52.186Z,63.24
2022-09-20T06:54:51.997Z,63.24
2022-09-20T06:55:52.297Z,63.14
2022-09-20T06:56:51.976Z,63.24
2022-09-20T06:57:52.126Z,63.14
2022-09-20T06:58:51.949Z,63.14
2022-09-20T06:59:52.125Z,63.14
2022-09-20T07:00:51.922Z,63.01
2022-09-20T07:01:52.220Z,63.01
2022-09-20T07:02:51.895Z,63.21
2022-09-20T07:03:52.020Z,62.92
2022-09-20T07:04:51.861Z,63.11
2022-09-20T07:05:51.920Z,63.01
2022-09-20T07:06:51.828Z,63.01
2022-09-20T07:07:52.375Z,62.81
2022-09-20T07:08:51.826Z,63.01
2022-09-20T07:09:51.897Z,63.01
2022-09-20T07:10:51.781Z,63.01
2022-09-20T07:11:51.881Z,62.92
2022-09-20T07:12:51.755Z,62.92
2022-09-20T07:13:52.041Z,62.81
2022-09-20T07:14:51.711Z,62.71
2022-09-20T07:15:51.952Z,62.81
2022-09-20T07:16:51.730Z,62.61
2022-09-20T07:17:52.023Z,62.81
2022-09-20T07:18:51.692Z,62.81
2022-09-20T07:19:51.783Z,62.71
2022-09-20T07:20:51.649Z,62.81
2022-09-20T07:21:51.863Z,62.41
2022-09-20T07:22:51.614Z,62.71
2022-09-20T07:23:51.740Z,62.51
2022-09-20T07:24:51.576Z,62.71
2022-09-20T07:25:51.779Z,62.51
2022-09-20T07:26:51.557Z,62.41
2022-09-20T07:27:52.124Z,62.51
2022-09-20T07:28:51.534Z,62.51
2022-09-20T07:29:51.743Z,62.51
2022-09-20T07:30:51.506Z,62.61
2022-09-20T07:31:51.910Z,62.41
2022-09-20T07:32:51.470Z,62.51
2022-09-20T07:33:52.563Z,62.71
2022-09-20T07:34:51.454Z,62.71
2022-09-20T07:35:51.624Z,62.61
2022-09-20T07:36:51.440Z,62.61
2022-09-20T07:37:51.986Z,62.31
2022-09-20T07:38:51.396Z,62.81
2022-09-20T07:39:51.502Z,62.71
2022-09-20T07:40:51.349Z,62.71
2022-09-20T07:41:51.447Z,62.31
2022-09-20T07:42:56.014Z,62.51
2022-09-20T07:43:52.615Z,62.41
2022-09-20T07:44:51.319Z,62.21
2022-09-20T07:45:51.768Z,62.21
2022-09-20T07:46:51.273Z,62.11
2022-09-20T07:47:51.439Z,62.11
2022-09-20T07:48:51.255Z,62.01
2022-09-20T07:49:51.825Z,61.88
2022-09-20T07:50:51.214Z,61.68
2022-09-20T07:51:51.613Z,61.58
2022-09-20T07:52:51.211Z,61.58
2022-09-20T07:53:51.633Z,61.48
2022-09-20T07:54:51.176Z,61.38
2022-09-20T07:55:51.869Z,61.48
2022-09-20T07:56:51.146Z,61.48
2022-09-20T07:57:51.581Z,61.58
2022-09-20T07:58:52.544Z,61.58
2022-09-20T07:59:52.018Z,61.58
2022-09-20T08:00:51.121Z,61.58
2022-09-20T08:01:51.357Z,61.48
2022-09-20T08:02:51.053Z,61.58
2022-09-20T08:03:51.867Z,61.48
2022-09-20T08:04:51.024Z,61.58
2022-09-20T08:05:51.348Z,61.48
2022-09-20T08:06:51.004Z,61.68
2022-09-20T08:07:52.179Z,61.58
2022-09-20T08:08:50.980Z,61.38
2022-09-20T08:09:51.280Z,61.48
2022-09-20T08:10:50.943Z,61.28
2022-09-20T08:11:51.647Z,61.08
2022-09-20T08:14:08.585Z,60.98
2022-09-20T08:14:51.922Z,60.88
2022-09-20T08:15:50.973Z,60.98
2022-09-20T08:16:50.919Z,61.08
2022-09-20T08:17:52.030Z,61.18
2022-09-20T08:18:50.830Z,61.08
2022-09-20T08:19:51.040Z,61.08
2022-09-20T08:20:50.836Z,61.08
2022-09-20T08:21:50.832Z,61.15
2022-09-20T08:23:12.579Z,60.95
2022-09-20T08:23:51.868Z,60.95
2022-09-20T08:24:50.760Z,60.95
2022-09-20T08:25:51.496Z,60.85
2022-09-20T08:26:50.751Z,60.95
2022-09-20T08:27:50.841Z,60.95
2022-09-20T08:28:50.689Z,60.95
2022-09-20T08:29:50.966Z,61.05
2022-09-20T08:30:50.670Z,60.95
2022-09-20T08:31:51.185Z,61.05
2022-09-20T08:32:50.672Z,60.95
2022-09-20T08:33:50.836Z,60.85
2022-09-20T08:34:50.626Z,60.75
2022-09-20T08:35:51.327Z,60.65
2022-09-20T08:36:50.597Z,60.75
2022-09-20T08:37:51.455Z,60.95
2022-09-20T08:39:59.394Z,60.75
2022-09-20T08:40:51.554Z,61.05
2022-09-20T08:41:50.678Z,61.05
2022-09-20T08:42:50.508Z,60.72
2022-09-20T08:43:50.729Z,60.82
2022-09-20T08:44:57.895Z,60.82
2022-09-20T08:45:51.598Z,60.72
2022-09-20T08:46:50.434Z,60.62
2022-09-20T08:47:51.288Z,60.52
2022-09-20T08:48:50.419Z,60.52
2022-09-20T08:49:56.405Z,60.62
2022-09-20T08:50:51.449Z,60.72
2022-09-20T08:51:50.733Z,60.72
2022-09-20T08:52:50.377Z,60.52
2022-09-20T08:53:50.631Z,60.62
2022-09-20T08:54:50.334Z,60.82
2022-09-20T08:55:50.571Z,60.92
2022-09-20T08:56:50.333Z,60.82
2022-09-20T08:57:50.506Z,60.82
2022-09-20T08:58:50.360Z,60.69
2022-09-20T08:59:51.178Z,60.69
2022-09-20T09:00:50.303Z,60.59
2022-09-20T09:01:51.822Z,60.59
2022-09-20T09:02:50.242Z,60.59
2022-09-20T09:03:50.658Z,60.59
2022-09-20T09:04:50.215Z,60.89
2022-09-20T09:05:50.607Z,60.69
2022-09-20T09:06:50.156Z,60.89
2022-09-20T09:07:50.416Z,60.79
2022-09-20T09:08:50.167Z,60.79
2022-09-20T09:09:50.669Z,60.69
2022-09-20T09:10:50.119Z,60.69
2022-09-20T09:11:50.099Z,60.59
2022-09-20T09:12:50.080Z,60.69
2022-09-20T09:13:50.282Z,60.59
2022-09-20T09:14:50.091Z,60.59
2022-09-20T09:15:50.765Z,60.59
2022-09-20T09:16:50.063Z,60.59
2022-09-20T09:17:49.993Z,60.49
2022-09-20T09:18:50.003Z,60.46
2022-09-20T09:19:50.136Z,60.59
2022-09-20T09:20:50.030Z,60.57
2022-09-20T09:21:49.996Z,60.57
2022-09-20T09:22:49.944Z,60.66
2022-09-20T09:23:49.905Z,60.66
2022-09-20T09:24:49.909Z,60.66
2022-09-20T09:25:50.362Z,60.96
2022-09-20T09:26:49.927Z,60.86
2022-09-20T09:27:49.891Z,60.66
2022-09-20T09:28:49.859Z,60.66
2022-09-20T09:29:49.849Z,60.57
2022-09-20T09:30:49.840Z,60.66
2022-09-20T09:31:50.117Z,60.57
2022-09-20T09:32:49.834Z,60.66
2022-09-20T09:33:50.010Z,60.46
2022-09-20T09:34:49.768Z,60.44
2022-09-20T09:35:49.807Z,60.46
2022-09-20T09:36:49.742Z,60.44
2022-09-20T09:37:49.727Z,60.33
2022-09-20T09:38:49.764Z,60.24
2022-09-20T09:39:49.845Z,60.24
2022-09-20T09:40:49.698Z,60.53
2022-09-20T09:41:49.678Z,60.24
2022-09-20T09:42:49.663Z,60.24
2022-09-20T09:43:49.650Z,60.44
2022-09-20T09:44:49.691Z,60.33
2022-09-20T09:45:49.825Z,60.44
2022-09-20T09:46:49.598Z,60.44
2022-09-20T09:47:49.582Z,60.33
2022-09-20T09:48:49.582Z,60.33
2022-09-20T09:49:49.558Z,60.33
2022-09-20T09:50:49.592Z,60.24
2022-09-20T09:51:49.705Z,60.24
2022-09-20T09:52:49.527Z,60.14
2022-09-20T09:53:49.502Z,60.14
2022-09-20T09:54:49.482Z,60.00
2022-09-20T09:55:49.470Z,60.11
2022-09-20T09:56:49.556Z,60.14
2022-09-20T09:57:49.587Z,60.11
2022-09-20T09:58:49.577Z,60.00
2022-09-20T09:59:49.429Z,60.00
2022-09-20T10:00:49.457Z,60.00
2022-09-20T10:01:49.463Z,60.00
2022-09-20T10:02:49.402Z,59.91
2022-09-20T10:03:49.450Z,60.00
2022-09-20T10:04:49.371Z,60.00
2022-09-20T10:05:49.326Z,59.91
2022-09-20T10:06:52.236Z,59.91
2022-09-20T10:07:49.306Z,59.91
2022-09-20T10:08:49.344Z,59.81
2022-09-20T10:09:50.027Z,59.81
2022-09-20T10:10:49.277Z,59.81
2022-09-20T10:11:49.254Z,59.78
2022-09-20T10:12:49.220Z,59.78
2022-09-20T10:13:49.210Z,59.68
2022-09-20T10:14:49.256Z,59.68
2022-09-20T10:15:49.356Z,59.58
2022-09-20T10:16:49.252Z,59.78
2022-09-20T10:17:49.164Z,59.58
2022-09-20T10:18:49.152Z,59.48
2022-09-20T10:19:49.127Z,59.58
2022-09-20T10:20:49.222Z,59.68
2022-09-20T10:21:49.261Z,59.78
2022-09-20T10:23:07.034Z,59.68
2022-09-20T10:24:03.203Z,59.68
2022-09-20T10:24:51.648Z,59.68
2022-09-20T10:25:49.053Z,59.58
2022-09-20T10:26:49.072Z,59.68
2022-09-20T10:27:49.197Z,59.58
2022-09-20T10:28:49.006Z,59.68
2022-09-20T10:29:48.989Z,59.58
2022-09-20T10:30:49.023Z,59.78
2022-09-20T10:31:48.973Z,59.65
2022-09-20T10:32:48.987Z,59.55
2022-09-20T10:33:49.136Z,59.55
2022-09-20T10:34:48.917Z,59.55
2022-09-20T10:35:48.907Z,59.65
2022-09-20T10:36:48.905Z,59.65
2022-09-20T10:37:49.566Z,59.65
2022-09-20T10:38:48.896Z,59.75
2022-09-20T10:39:49.059Z,59.65
2022-09-20T10:40:48.834Z,59.75
2022-09-20T10:41:48.828Z,59.75
2022-09-20T10:42:48.810Z,59.75
2022-09-20T10:43:48.790Z,59.75
2022-09-20T10:44:48.814Z,59.75
2022-09-20T10:46:27.881Z,59.75
2022-09-20T10:46:49.768Z,59.75
2022-09-20T10:47:48.741Z,59.75
2022-09-20T10:48:48.727Z,59.75
2022-09-20T10:49:50.952Z,59.95
2022-09-20T10:50:48.718Z,59.95
2022-09-20T10:51:48.834Z,60.05
2022-09-20T10:52:48.669Z,60.15
2022-09-20T10:53:48.638Z,60.05
2022-09-20T10:54:48.721Z,59.95
2022-09-20T10:55:48.649Z,59.95
2022-09-20T10:56:48.662Z,60.05
2022-09-20T10:57:48.684Z,59.85
2022-09-20T10:58:48.566Z,59.95
2022-09-20T10:59:48.562Z,60.05
2022-09-20T11:00:48.563Z,60.15
2022-09-20T11:01:48.574Z,60.25
2022-09-20T11:02:48.556Z,60.35
2022-09-20T11:03:48.639Z,60.28
2022-09-20T11:04:48.499Z,60.25
2022-09-20T11:05:48.499Z,60.15
2022-09-20T11:06:48.469Z,60.15
2022-09-20T11:07:48.432Z,60.15
2022-09-20T11:08:48.496Z,60.25
2022-09-20T11:09:48.502Z,60.35
2022-09-20T11:10:48.405Z,60.65
2022-09-20T11:11:48.390Z,60.35
2022-09-20T11:12:48.405Z,60.58
2022-09-20T11:13:48.373Z,60.38
2022-09-20T11:14:48.497Z,60.58
2022-09-20T11:15:48.440Z,60.58
2022-09-20T11:16:48.389Z,60.58
2022-09-20T11:17:48.314Z,60.68
2022-09-20T11:18:48.300Z,60.58
2022-09-20T11:19:48.288Z,60.58
2022-09-20T11:20:48.299Z,60.58
2022-09-20T11:21:48.352Z,60.78
2022-09-20T11:22:48.255Z,60.88
2022-09-20T11:23:48.226Z,60.88
2022-09-20T11:24:48.225Z,60.68
2022-09-20T11:25:48.211Z,60.88
2022-09-20T11:26:48.228Z,60.78
2022-09-20T11:27:48.298Z,60.68
2022-09-20T11:28:48.160Z,60.78
2022-09-20T11:29:48.187Z,60.68
2022-09-20T11:30:48.125Z,60.78
2022-09-20T11:31:48.221Z,60.88
2022-09-20T11:32:48.124Z,60.58
2022-09-20T11:33:48.174Z,60.68
2022-09-20T11:34:48.082Z,60.58
2022-09-20T11:35:48.066Z,60.48
2022-09-20T11:36:48.045Z,60.48
2022-09-20T11:37:48.036Z,60.28
2022-09-20T11:38:52.863Z,60.28
2022-09-20T11:39:49.097Z,60.28
2022-09-20T11:40:47.992Z,60.28
2022-09-20T11:41:47.995Z,60.38
2022-09-20T11:42:47.940Z,60.25
2022-09-20T11:43:47.931Z,60.35
2022-09-20T11:44:47.954Z,60.15
2022-09-20T11:45:48.085Z,60.15
2022-09-20T11:46:47.894Z,60.15
2022-09-20T11:47:54.916Z,60.25
2022-09-20T11:48:48.864Z,60.25
2022-09-20T11:49:47.869Z,60.25
2022-09-20T11:50:47.868Z,60.25
2022-09-20T11:51:47.929Z,60.35
2022-09-20T11:52:47.804Z,60.35
2022-09-20T11:53:47.819Z,60.25
2022-09-20T11:54:47.932Z,60.35
2022-09-20T11:55:47.785Z,60.35
2022-09-20T11:56:47.779Z,60.45
2022-09-20T11:57:48.367Z,60.65
2022-09-20T11:58:47.748Z,60.65
2022-09-20T11:59:47.711Z,60.78
2022-09-20T12:00:47.711Z,60.78
2022-09-20T12:01:47.709Z,60.78
2022-09-20T12:02:47.975Z,60.97
2022-09-20T12:03:47.756Z,60.97
2022-09-20T12:04:47.667Z,60.97
2022-09-20T12:05:47.639Z,60.97
2022-09-20T12:06:47.617Z,60.97
2022-09-20T12:07:47.605Z,61.08
2022-09-20T12:08:47.639Z,61.18
2022-09-20T12:09:47.798Z,61.08
2022-09-20T12:10:47.568Z,61.08
2022-09-20T12:11:47.566Z,60.97
2022-09-20T12:12:47.524Z,60.88
2022-09-20T12:13:47.525Z,60.78
2022-09-20T12:14:47.550Z,60.88
2022-09-20T12:15:47.636Z,60.68
2022-09-20T12:16:47.570Z,60.68
2022-09-20T12:17:47.475Z,60.58
2022-09-20T12:18:47.451Z,60.58
2022-09-20T12:19:47.436Z,60.58
2022-09-20T12:20:47.582Z,60.45
2022-09-20T12:21:49.493Z,60.45
2022-09-20T12:22:47.405Z,60.35
2022-09-20T12:23:47.392Z,60.35
2022-09-20T12:24:47.370Z,60.45
2022-09-20T12:25:47.370Z,60.45
2022-09-20T12:26:47.369Z,60.35
2022-09-20T12:27:47.418Z,60.25
2022-09-20T12:28:47.287Z,60.45
2022-09-20T12:29:47.298Z,60.45
2022-09-20T12:30:47.268Z,60.42
2022-09-20T12:31:47.316Z,60.35
2022-09-20T12:32:47.286Z,60.42
2022-09-20T12:33:47.627Z,60.35
2022-09-20T12:34:47.243Z,60.45
2022-09-20T12:35:47.317Z,60.45
2022-09-20T12:36:47.245Z,60.65
2022-09-20T12:37:47.190Z,60.75
2022-09-20T12:38:47.217Z,60.85
2022-09-20T12:39:47.255Z,60.75
2022-09-20T12:40:47.133Z,60.55
2022-09-20T12:41:47.153Z,60.85
2022-09-20T12:42:47.110Z,60.85
2022-09-20T12:43:47.093Z,60.85
2022-09-20T12:44:47.142Z,60.95
2022-09-20T12:45:47.300Z,60.75
2022-09-20T12:46:47.061Z,60.75
2022-09-20T12:47:47.041Z,60.95
2022-09-20T12:48:47.043Z,60.75
2022-09-20T12:49:47.009Z,60.85
2022-09-20T12:50:47.011Z,60.85
2022-09-20T12:51:47.183Z,60.75
2022-09-20T12:52:46.968Z,60.65
2022-09-20T12:53:46.953Z,60.65
2022-09-20T12:54:46.965Z,60.62